createdAt,value
2023-04-13T00:00:48.017Z,41.66
2023-04-13T00:01:48.154Z,41.74
2023-04-13T00:02:48.184Z,41.71
2023-04-13T00:03:48.267Z,41.73
2023-04-13T00:04:49.176Z,41.71
2023-04-13T00:05:49.342Z,41.73
2023-04-13T00:06:49.276Z,41.72
2023-04-13T00:07:49.362Z,41.70
2023-04-13T00:08:49.398Z,41.71
2023-04-13T00:09:49.474Z,41.75
2023-04-13T00:10:49.535Z,41.69
2023-04-13T00:11:49.556Z,41.74
2023-04-13T00:12:49.616Z,41.74
2023-04-13T00:13:48.669Z,41.75
2023-04-13T00:14:49.887Z,41.74
2023-04-13T00:15:48.798Z,41.72
2023-04-13T00:16:48.901Z,41.75
2023-04-13T00:17:49.915Z,41.71
2023-04-13T00:18:49.924Z,41.74
2023-04-13T00:19:49.983Z,41.72
2023-04-13T00:20:50.067Z,41.78
2023-04-13T00:21:50.114Z,41.75
2023-04-13T00:22:50.166Z,41.80
2023-04-13T00:23:50.221Z,41.74
2023-04-13T00:24:49.291Z,41.74
2023-04-13T00:25:50.379Z,41.74
2023-04-13T00:26:49.420Z,41.74
2023-04-13T00:27:50.456Z,41.76
2023-04-13T00:28:49.519Z,41.76
2023-04-13T00:29:50.582Z,41.72
2023-04-13T00:30:50.693Z,41.78
2023-04-13T00:31:50.721Z,41.84
2023-04-13T00:32:50.813Z,41.83
2023-04-13T00:33:49.833Z,41.81
2023-04-13T00:34:49.899Z,41.85
2023-04-13T00:35:49.938Z,41.77
2023-04-13T00:36:51.019Z,41.80
2023-04-13T00:37:51.085Z,41.83
2023-04-13T00:38:50.148Z,41.85
2023-04-13T00:39:50.208Z,41.74
2023-04-13T00:40:51.257Z,41.81
2023-04-13T00:41:50.312Z,41.76
2023-04-13T00:42:51.408Z,41.85
2023-04-13T00:43:51.454Z,41.76
2023-04-13T00:44:50.490Z,41.82
2023-04-13T00:45:51.617Z,41.78
2023-04-13T00:46:51.617Z,41.81
2023-04-13T00:47:51.750Z,41.78
2023-04-13T00:48:51.743Z,41.77
2023-04-13T00:49:51.802Z,41.82
2023-04-13T00:50:51.887Z,41.85
2023-04-13T00:51:51.932Z,41.86
2023-04-13T00:52:52.004Z,41.74
2023-04-13T00:53:52.055Z,41.89
2023-04-13T00:54:51.121Z,41.77
2023-04-13T00:55:51.171Z,41.84
2023-04-13T00:56:52.229Z,41.82
2023-04-13T00:57:51.292Z,41.82
2023-04-13T00:58:51.389Z,41.78
2023-04-13T00:59:51.435Z,41.80
2023-04-13T01:00:51.515Z,41.88
2023-04-13T01:01:52.641Z,41.85
2023-04-13T01:02:52.735Z,41.82
2023-04-13T01:03:51.666Z,41.78
2023-04-13T01:04:51.902Z,41.79
2023-04-13T01:05:52.804Z,41.82
2023-04-13T01:06:51.885Z,41.81
2023-04-13T01:07:52.941Z,41.78
2023-04-13T01:08:52.996Z,41.84
2023-04-13T01:09:53.057Z,41.82
2023-04-13T01:10:52.124Z,41.79
2023-04-13T01:11:53.182Z,41.81
2023-04-13T01:12:53.250Z,41.88
2023-04-13T01:13:53.322Z,41.84
2023-04-13T01:14:52.382Z,41.87
2023-04-13T01:15:53.474Z,41.87
2023-04-13T01:16:52.488Z,41.84
2023-04-13T01:17:52.633Z,41.86
2023-04-13T01:18:53.611Z,41.89
2023-04-13T01:19:52.704Z,41.90
2023-04-13T01:20:53.730Z,41.85
2023-04-13T01:21:52.802Z,41.77
2023-04-13T01:22:54.043Z,41.85
2023-04-13T01:23:52.922Z,41.91
2023-04-13T01:24:53.986Z,41.80
2023-04-13T01:25:54.037Z,41.82
2023-04-13T01:26:53.101Z,41.82
2023-04-13T01:27:54.169Z,41.80
2023-04-13T01:28:53.194Z,41.87
2023-04-13T01:29:53.234Z,41.80
2023-04-13T01:30:53.304Z,41.88
2023-04-13T01:31:54.406Z,41.90
2023-04-13T01:32:54.408Z,41.77
2023-04-13T01:33:54.458Z,41.90
2023-04-13T01:34:54.506Z,41.85
2023-04-13T01:35:54.583Z,41.95
2023-04-13T01:36:54.657Z,42.02
2023-04-13T01:37:54.701Z,41.94
2023-04-13T01:38:54.757Z,41.88
2023-04-13T01:39:54.821Z,41.77
2023-04-13T01:40:53.896Z,41.76
2023-04-13T01:41:54.945Z,41.76
2023-04-13T01:42:55.025Z,41.67
2023-04-13T01:43:54.079Z,41.69
2023-04-13T01:44:55.114Z,41.70
2023-04-13T01:45:55.176Z,41.60
2023-04-13T01:46:55.323Z,41.59
2023-04-13T01:47:55.351Z,41.50
2023-04-13T01:48:55.345Z,41.52
2023-04-13T01:49:55.384Z,41.49
2023-04-13T01:50:54.444Z,41.35
2023-04-13T01:51:54.496Z,41.38
2023-04-13T01:52:54.523Z,41.39
2023-04-13T01:53:54.560Z,41.35
2023-04-13T01:54:55.583Z,41.30
2023-04-13T01:55:55.630Z,41.26
2023-04-13T01:56:55.704Z,41.24
2023-04-13T01:57:55.706Z,41.22
2023-04-13T01:58:55.719Z,41.15
2023-04-13T01:59:54.750Z,41.10
2023-04-13T02:00:55.816Z,41.12
2023-04-13T02:01:54.873Z,41.06
2023-04-13T02:02:56.020Z,41.05
2023-04-13T02:03:54.990Z,41.03
2023-04-13T02:04:55.888Z,40.99
2023-04-13T02:05:55.924Z,40.93
2023-04-13T02:06:55.942Z,40.91
2023-04-13T02:07:55.985Z,40.90
2023-04-13T02:08:55.015Z,40.86
2023-04-13T02:09:56.006Z,40.81
2023-04-13T02:10:55.017Z,40.83
2023-04-13T02:11:55.035Z,40.81
2023-04-13T02:12:55.039Z,40.79
2023-04-13T02:13:56.180Z,40.76
2023-04-13T02:14:56.064Z,40.72
2023-04-13T02:15:55.099Z,40.67
2023-04-13T02:16:56.081Z,40.61
2023-04-13T02:17:56.188Z,40.62
2023-04-13T02:18:56.125Z,40.65
2023-04-13T02:19:55.112Z,40.60
2023-04-13T02:20:56.106Z,40.56
2023-04-13T02:21:55.115Z,40.59
2023-04-13T02:22:56.096Z,40.52
2023-04-13T02:23:56.218Z,40.54
2023-04-13T02:24:55.075Z,40.49
2023-04-13T02:25:56.072Z,40.46
2023-04-13T02:26:55.071Z,40.47
2023-04-13T02:27:56.071Z,40.45
2023-04-13T02:28:56.052Z,40.42
2023-04-13T02:29:55.056Z,40.42
2023-04-13T02:30:56.046Z,40.40
2023-04-13T02:31:56.080Z,40.36
2023-04-13T02:32:56.090Z,40.33
2023-04-13T02:33:56.136Z,40.36
2023-04-13T02:34:56.134Z,40.34
2023-04-13T02:35:55.150Z,40.35
2023-04-13T02:36:55.173Z,40.30
2023-04-13T02:37:56.194Z,40.28
2023-04-13T02:38:56.159Z,40.29
2023-04-13T02:39:55.172Z,40.22
2023-04-13T02:40:55.158Z,40.22
2023-04-13T02:41:56.146Z,40.22
2023-04-13T02:42:56.171Z,40.23
2023-04-13T02:43:56.279Z,40.22
2023-04-13T02:44:55.163Z,40.25
2023-04-13T02:45:56.244Z,40.21
2023-04-13T02:46:56.161Z,40.15
2023-04-13T02:47:56.173Z,40.20
2023-04-13T02:48:55.143Z,40.12
2023-04-13T02:49:56.150Z,40.14
2023-04-13T02:50:56.164Z,40.10
2023-04-13T02:51:55.154Z,40.12
2023-04-13T02:52:56.148Z,40.14
2023-04-13T02:53:57.814Z,40.11
2023-04-13T02:54:56.128Z,40.10
2023-04-13T02:55:55.122Z,40.08
2023-04-13T02:56:55.118Z,40.07
2023-04-13T02:57:56.114Z,40.09
2023-04-13T02:58:55.128Z,40.12
2023-04-13T02:59:56.118Z,40.05
2023-04-13T03:00:55.111Z,40.07
2023-04-13T03:01:55.096Z,40.02
2023-04-13T03:02:56.139Z,40.07
2023-04-13T03:03:55.076Z,40.01
2023-04-13T03:04:56.136Z,39.94
2023-04-13T03:05:55.066Z,39.99
2023-04-13T03:06:56.093Z,40.01
2023-04-13T03:07:55.093Z,39.96
2023-04-13T03:08:55.086Z,39.98
2023-04-13T03:09:56.104Z,39.97
2023-04-13T03:10:56.021Z,39.98
2023-04-13T03:11:55.007Z,39.97
2023-04-13T03:12:56.036Z,39.96
2023-04-13T03:13:54.995Z,39.93
2023-04-13T03:14:54.983Z,39.94
2023-04-13T03:15:55.974Z,39.89
2023-04-13T03:16:56.035Z,39.91
2023-04-13T03:17:56.008Z,39.84
2023-04-13T03:18:54.967Z,39.92
2023-04-13T03:19:55.968Z,39.91
2023-04-13T03:20:55.953Z,39.86
2023-04-13T03:21:54.959Z,39.91
2023-04-13T03:22:55.959Z,39.86
2023-04-13T03:23:54.944Z,39.87
2023-04-13T03:24:55.928Z,39.86
2023-04-13T03:25:54.924Z,39.82
2023-04-13T03:26:54.918Z,39.78
2023-04-13T03:27:54.914Z,39.79
2023-04-13T03:28:55.911Z,39.76
2023-04-13T03:29:55.913Z,39.81
2023-04-13T03:30:55.935Z,39.83
2023-04-13T03:31:55.871Z,39.76
2023-04-13T03:32:54.962Z,39.78
2023-04-13T03:33:55.014Z,39.78
2023-04-13T03:34:56.070Z,39.82
2023-04-13T03:35:56.130Z,39.79
2023-04-13T03:36:56.180Z,39.74
2023-04-13T03:37:56.243Z,39.74
2023-04-13T03:38:56.332Z,39.73
2023-04-13T03:39:56.363Z,39.73
2023-04-13T03:40:56.426Z,39.68
2023-04-13T03:41:55.490Z,39.70
2023-04-13T03:42:56.560Z,39.71
2023-04-13T03:43:56.925Z,39.72
2023-04-13T03:44:56.666Z,39.75
2023-04-13T03:45:55.760Z,39.69
2023-04-13T03:46:56.791Z,39.66
2023-04-13T03:47:55.861Z,39.65
2023-04-13T03:48:56.932Z,39.64
2023-04-13T03:49:56.986Z,39.65
2023-04-13T03:50:57.044Z,39.64
2023-04-13T03:51:56.100Z,39.68
2023-04-13T03:52:57.172Z,39.65
2023-04-13T03:53:57.384Z,39.64
2023-04-13T03:54:57.346Z,39.64
2023-04-13T03:55:56.349Z,39.63
2023-04-13T03:56:57.412Z,39.59
2023-04-13T03:57:57.479Z,39.61
2023-04-13T03:58:57.588Z,39.60
2023-04-13T03:59:57.670Z,39.63
2023-04-13T04:00:57.677Z,39.59
2023-04-13T04:01:57.761Z,39.59
2023-04-13T04:02:57.859Z,39.61
2023-04-13T04:03:58.596Z,39.58
2023-04-13T04:04:57.950Z,39.55
2023-04-13T04:05:57.977Z,39.52
2023-04-13T04:06:57.020Z,39.56
2023-04-13T04:07:58.067Z,39.55
2023-04-13T04:08:58.124Z,39.58
2023-04-13T04:09:58.175Z,39.63
2023-04-13T04:10:58.297Z,39.59
2023-04-13T04:11:57.286Z,39.58
2023-04-13T04:12:58.346Z,39.59
2023-04-13T04:13:57.661Z,39.59
2023-04-13T04:14:58.408Z,39.61
2023-04-13T04:15:58.527Z,39.60
2023-04-13T04:16:58.530Z,39.56
2023-04-13T04:17:58.602Z,39.59
2023-04-13T04:18:57.605Z,39.60
2023-04-13T04:19:58.670Z,39.59
2023-04-13T04:20:58.709Z,39.58
2023-04-13T04:21:57.794Z,39.59
2023-04-13T04:22:58.782Z,39.63
2023-04-13T04:23:58.944Z,39.63
2023-04-13T04:24:57.880Z,39.60
2023-04-13T04:25:58.925Z,39.66
2023-04-13T04:26:58.969Z,39.65
2023-04-13T04:27:58.999Z,39.64
2023-04-13T04:28:59.052Z,39.64
2023-04-13T04:29:58.059Z,39.66
2023-04-13T04:30:59.072Z,39.68
2023-04-13T04:31:59.139Z,39.65
2023-04-13T04:32:59.214Z,39.65
2023-04-13T04:33:58.393Z,39.65
2023-04-13T04:34:58.217Z,39.66
2023-04-13T04:35:59.236Z,39.69
2023-04-13T04:37:02.895Z,39.70
2023-04-13T04:37:59.245Z,39.69
2023-04-13T04:38:59.259Z,39.69
2023-04-13T04:39:58.243Z,39.69
2023-04-13T04:40:59.247Z,39.70
2023-04-13T04:41:59.218Z,39.66
2023-04-13T04:42:59.242Z,39.65
2023-04-13T04:43:59.356Z,39.69
2023-04-13T04:44:59.190Z,39.66
2023-04-13T04:45:58.273Z,39.64
2023-04-13T04:46:59.181Z,39.65
2023-04-13T04:47:58.200Z,39.68
2023-04-13T04:48:58.177Z,39.65
2023-04-13T04:49:59.156Z,39.70
2023-04-13T04:50:58.231Z,39.65
2023-04-13T04:51:59.208Z,39.68
2023-04-13T04:52:59.248Z,39.64
2023-04-13T04:53:58.683Z,39.71
2023-04-13T04:54:59.317Z,39.63
2023-04-13T04:55:59.351Z,39.65
2023-04-13T04:56:59.390Z,39.61
2023-04-13T04:57:59.456Z,39.63
2023-04-13T04:58:58.766Z,39.60
2023-04-13T04:59:59.508Z,39.60
2023-04-13T05:00:59.554Z,39.61
2023-04-13T05:01:59.658Z,39.61
2023-04-13T05:02:58.727Z,39.63
2023-04-13T05:03:59.701Z,39.59
2023-04-13T05:04:58.876Z,39.55
2023-04-13T05:05:59.831Z,39.55
2023-04-13T05:06:59.906Z,39.59
2023-04-13T05:07:58.957Z,39.55
2023-04-13T05:09:00.327Z,39.58
2023-04-13T05:10:00.136Z,39.52
2023-04-13T05:10:59.147Z,39.55
2023-04-13T05:11:59.225Z,39.52
2023-04-13T05:13:00.284Z,39.54
2023-04-13T05:14:00.426Z,39.51
2023-04-13T05:14:59.394Z,39.50
2023-04-13T05:16:00.505Z,39.48
2023-04-13T05:17:00.540Z,39.52
2023-04-13T05:17:59.657Z,39.50
2023-04-13T05:18:59.865Z,39.47
2023-04-13T05:19:59.743Z,39.45
2023-04-13T05:20:59.765Z,39.43
2023-04-13T05:21:59.825Z,39.43
2023-04-13T05:23:00.919Z,39.50
2023-04-13T05:23:59.976Z,39.43
2023-04-13T05:25:01.052Z,39.45
2023-04-13T05:26:01.090Z,39.45
2023-04-13T05:27:01.189Z,39.44
2023-04-13T05:28:01.254Z,39.44
2023-04-13T05:29:00.634Z,39.49
2023-04-13T05:30:01.392Z,39.49
2023-04-13T05:31:01.465Z,39.46
2023-04-13T05:32:01.572Z,39.87
2023-04-13T05:33:01.564Z,39.82
2023-04-13T05:34:00.597Z,39.89
2023-04-13T05:35:02.119Z,39.78
2023-04-13T05:36:01.697Z,39.78
2023-04-13T05:37:01.771Z,39.74
2023-04-13T05:38:01.805Z,39.82
2023-04-13T05:39:01.008Z,39.79
2023-04-13T05:40:01.956Z,39.81
2023-04-13T05:41:00.956Z,39.91
2023-04-13T05:42:02.017Z,39.94
2023-04-13T05:43:01.050Z,40.08
2023-04-13T05:44:02.112Z,40.22
2023-04-13T05:45:01.155Z,40.19
2023-04-13T05:46:02.418Z,40.11
2023-04-13T05:47:02.324Z,40.52
2023-04-13T05:48:01.306Z,40.28
2023-04-13T05:49:01.409Z,39.10
2023-04-13T05:50:02.368Z,38.50
2023-04-13T05:51:02.370Z,39.07
2023-04-13T05:52:02.391Z,39.59
2023-04-13T05:53:02.471Z,39.18
2023-04-13T05:54:02.565Z,40.68
2023-04-13T05:55:02.552Z,40.67
2023-04-13T05:56:02.563Z,41.00
2023-04-13T05:57:02.622Z,41.20
2023-04-13T05:58:01.605Z,40.48
2023-04-13T05:59:01.744Z,41.48
2023-04-13T06:00:03.123Z,40.21
2023-04-13T06:01:01.914Z,40.99
2023-04-13T06:02:01.902Z,41.95
2023-04-13T06:03:03.073Z,41.88
2023-04-13T06:04:02.897Z,41.87
2023-04-13T06:05:01.911Z,41.42
2023-04-13T06:06:02.812Z,43.16
2023-04-13T06:07:01.861Z,41.51
2023-04-13T06:08:01.891Z,41.53
2023-04-13T06:09:02.904Z,41.37
2023-04-13T06:10:02.031Z,42.18
2023-04-13T06:11:03.026Z,41.52
2023-04-13T06:12:03.022Z,41.76
2023-04-13T06:13:02.026Z,42.03
2023-04-13T06:14:03.108Z,42.00
2023-04-13T06:15:03.126Z,41.72
2023-04-13T06:16:02.164Z,41.87
2023-04-13T06:17:03.327Z,41.64
2023-04-13T06:18:02.300Z,41.94
2023-04-13T06:19:03.204Z,41.80
2023-04-13T06:20:02.253Z,41.98
2023-04-13T06:21:03.323Z,42.19
2023-04-13T06:22:03.225Z,42.22
2023-04-13T06:23:03.252Z,42.33
2023-04-13T06:24:02.256Z,42.58
2023-04-13T06:25:02.286Z,42.33
2023-04-13T06:26:05.033Z,42.28
2023-04-13T06:27:03.316Z,42.83
2023-04-13T06:28:02.305Z,42.57
2023-04-13T06:29:03.339Z,42.80
2023-04-13T06:30:02.302Z,42.91
2023-04-13T06:31:02.327Z,42.78
2023-04-13T06:32:02.303Z,42.77
2023-04-13T06:33:02.287Z,42.59
2023-04-13T06:34:03.242Z,43.41
2023-04-13T06:35:03.297Z,43.14
2023-04-13T06:36:03.201Z,43.78
2023-04-13T06:37:03.206Z,43.48
2023-04-13T06:38:03.207Z,43.71
2023-04-13T06:39:03.201Z,43.50
2023-04-13T06:40:02.269Z,43.77
2023-04-13T06:41:02.168Z,43.77
2023-04-13T06:42:02.156Z,44.17
2023-04-13T06:43:02.146Z,44.02
2023-04-13T06:44:02.127Z,43.76
2023-04-13T06:45:02.116Z,44.52
2023-04-13T06:46:03.261Z,44.61
2023-04-13T06:47:03.130Z,44.63
2023-04-13T06:48:03.198Z,44.45
2023-04-13T06:49:02.231Z,44.61
2023-04-13T06:50:03.316Z,44.34
2023-04-13T06:51:02.087Z,44.41
2023-04-13T06:52:02.091Z,44.51
2023-04-13T06:53:03.098Z,45.11
2023-04-13T06:54:03.138Z,45.00
2023-04-13T06:55:02.300Z,44.82
2023-04-13T06:56:03.258Z,45.00
2023-04-13T06:57:03.337Z,45.22
2023-04-13T06:58:02.367Z,45.27
2023-04-13T06:59:03.013Z,45.08
2023-04-13T07:00:03.500Z,45.29
2023-04-13T07:01:03.737Z,44.75
2023-04-13T07:02:02.725Z,45.03
2023-04-13T07:03:03.838Z,45.07
2023-04-13T07:04:02.861Z,45.18
2023-04-13T07:05:03.677Z,44.86
2023-04-13T07:06:03.739Z,45.41
2023-04-13T07:07:02.687Z,45.78
2023-04-13T07:08:02.778Z,45.61
2023-04-13T07:09:03.757Z,45.39
2023-04-13T07:10:03.911Z,45.05
2023-04-13T07:11:03.850Z,45.25
2023-04-13T07:12:03.891Z,45.21
2023-04-13T07:13:02.946Z,45.04
2023-04-13T07:14:03.982Z,45.51
2023-04-13T07:15:04.000Z,45.34
2023-04-13T07:16:04.202Z,45.81
2023-04-13T07:17:03.071Z,45.85
2023-04-13T07:18:03.199Z,46.15
2023-04-13T07:19:03.119Z,46.16
2023-04-13T07:20:03.120Z,45.79
2023-04-13T07:21:03.201Z,46.13
2023-04-13T07:22:04.169Z,46.09
2023-04-13T07:23:03.181Z,46.16
2023-04-13T07:24:03.252Z,46.28
2023-04-13T07:25:04.223Z,46.02
2023-04-13T07:26:03.230Z,45.90
2023-04-13T07:27:04.230Z,46.31
2023-04-13T07:28:03.243Z,46.27
2023-04-13T07:29:04.239Z,46.61
2023-04-13T07:30:04.285Z,46.20
2023-04-13T07:31:03.318Z,46.70
2023-04-13T07:32:04.279Z,47.06
2023-04-13T07:33:04.355Z,46.20
2023-04-13T07:34:03.308Z,46.77
2023-04-13T07:35:04.322Z,46.58
2023-04-13T07:36:04.346Z,46.67
2023-04-13T07:37:03.324Z,46.59
2023-04-13T07:38:03.376Z,46.93
2023-04-13T07:39:04.347Z,47.18
2023-04-13T07:40:03.373Z,47.07
2023-04-13T07:41:03.394Z,47.46
2023-04-13T07:42:04.383Z,47.97
2023-04-13T07:43:04.397Z,47.66
2023-04-13T07:44:04.413Z,47.12
2023-04-13T07:45:04.396Z,47.22
2023-04-13T07:46:04.426Z,47.86
2023-04-13T07:47:04.490Z,48.32
2023-04-13T07:48:05.166Z,48.22
2023-04-13T07:49:03.502Z,47.87
2023-04-13T07:50:04.529Z,47.40
2023-04-13T07:51:03.618Z,44.82
2023-04-13T07:52:04.657Z,43.44
2023-04-13T07:53:03.683Z,41.65
2023-04-13T07:54:03.687Z,39.69
2023-04-13T07:55:04.763Z,39.86
2023-04-13T07:56:03.759Z,37.83
2023-04-13T07:57:03.733Z,37.28
2023-04-13T07:58:04.776Z,37.49
2023-04-13T07:59:04.826Z,37.80
2023-04-13T08:00:04.895Z,37.23
2023-04-13T08:01:04.935Z,37.37
2023-04-13T08:02:04.036Z,36.67
2023-04-13T08:03:05.133Z,36.69
2023-04-13T08:04:05.292Z,37.12
2023-04-13T08:05:04.259Z,36.70
2023-04-13T08:06:05.152Z,36.77
2023-04-13T08:07:04.135Z,36.94
2023-04-13T08:08:05.152Z,36.72
2023-04-13T08:09:06.143Z,36.51
2023-04-13T08:10:05.158Z,36.49
2023-04-13T08:11:04.255Z,38.42
2023-04-13T08:12:05.293Z,38.66
2023-04-13T08:13:04.270Z,39.42
2023-04-13T08:14:05.289Z,41.00
2023-04-13T08:15:05.390Z,40.15
2023-04-13T08:16:05.448Z,39.59
2023-04-13T08:17:05.655Z,39.33
2023-04-13T08:18:05.608Z,39.20
2023-04-13T08:19:05.550Z,38.93
2023-04-13T08:20:04.517Z,38.98
2023-04-13T08:21:05.561Z,38.94
2023-04-13T08:22:05.539Z,38.78
2023-04-13T08:23:04.550Z,38.70
2023-04-13T08:24:04.577Z,38.73
2023-04-13T08:25:05.623Z,38.84
2023-04-13T08:26:04.621Z,38.88
2023-04-13T08:27:05.656Z,39.10
2023-04-13T08:28:05.692Z,39.21
2023-04-13T08:29:05.721Z,39.49
2023-04-13T08:30:05.714Z,39.28
2023-04-13T08:31:05.717Z,39.22
2023-04-13T08:32:06.213Z,39.15
2023-04-13T08:33:05.830Z,39.19
2023-04-13T08:34:05.844Z,39.38
2023-04-13T08:35:04.880Z,39.27
2023-04-13T08:36:05.960Z,39.14
2023-04-13T08:37:06.008Z,39.11
2023-04-13T08:38:06.062Z,39.32
2023-04-13T08:39:06.100Z,39.20
2023-04-13T08:40:06.370Z,39.08
2023-04-13T08:41:05.428Z,38.74
2023-04-13T08:42:05.645Z,38.56
2023-04-13T08:43:06.239Z,38.46
2023-04-13T08:44:05.248Z,38.68
2023-04-13T08:45:06.264Z,39.24
2023-04-13T08:46:05.322Z,38.75
2023-04-13T08:47:06.365Z,39.19
2023-04-13T08:48:06.434Z,38.53
2023-04-13T08:49:06.678Z,39.25
2023-04-13T08:50:06.506Z,38.37
2023-04-13T08:51:06.572Z,39.47
2023-04-13T08:52:06.697Z,38.00
2023-04-13T08:53:06.687Z,39.13
2023-04-13T08:54:06.689Z,38.82
2023-04-13T08:55:06.939Z,39.09
2023-04-13T08:56:06.768Z,36.69
2023-04-13T08:57:06.153Z,37.41
2023-04-13T08:58:05.761Z,37.56
2023-04-13T08:59:06.786Z,37.46
2023-04-13T09:00:06.786Z,38.09
2023-04-13T09:01:06.854Z,37.57
2023-04-13T09:02:06.938Z,37.06
2023-04-13T09:03:09.533Z,37.46
2023-04-13T09:04:07.166Z,36.95
2023-04-13T09:05:07.113Z,36.63
2023-04-13T09:06:06.865Z,37.26
2023-04-13T09:07:05.867Z,36.58
2023-04-13T09:08:06.861Z,35.51
2023-04-13T09:09:05.865Z,35.96
2023-04-13T09:10:06.828Z,35.37
2023-04-13T09:11:05.820Z,35.69
2023-04-13T09:12:06.812Z,34.94
2023-04-13T09:13:06.836Z,35.86
2023-04-13T09:14:06.822Z,35.24
2023-04-13T09:15:06.814Z,34.98
2023-04-13T09:16:06.187Z,35.13
2023-04-13T09:17:07.486Z,35.49
2023-04-13T09:18:06.835Z,35.37
2023-04-13T09:19:06.848Z,35.27
2023-04-13T09:20:05.820Z,35.29
2023-04-13T09:21:05.761Z,35.28
2023-04-13T09:22:06.765Z,34.86
2023-04-13T09:23:06.760Z,33.78
2023-04-13T09:24:06.902Z,34.46
2023-04-13T09:25:06.726Z,33.98
2023-04-13T09:26:05.722Z,34.44
2023-04-13T09:27:06.710Z,34.58
2023-04-13T09:28:05.761Z,33.90
2023-04-13T09:29:06.839Z,33.57
2023-04-13T09:30:06.713Z,34.02
2023-04-13T09:31:06.852Z,33.49
2023-04-13T09:32:06.950Z,33.58
2023-04-13T09:33:05.934Z,33.57
2023-04-13T09:34:05.900Z,33.95
2023-04-13T09:35:06.975Z,33.56
2023-04-13T09:36:07.019Z,33.76
2023-04-13T09:37:06.091Z,33.68
2023-04-13T09:38:06.107Z,33.65
2023-04-13T09:39:06.174Z,33.51
2023-04-13T09:40:07.216Z,33.28
2023-04-13T09:41:07.288Z,33.17
2023-04-13T09:42:07.337Z,33.22
2023-04-13T09:43:07.418Z,33.63
2023-04-13T09:44:06.438Z,33.54
2023-04-13T09:45:07.549Z,33.40
2023-04-13T09:46:06.631Z,33.11
2023-04-13T09:47:07.757Z,32.67
2023-04-13T09:48:07.628Z,32.50
2023-04-13T09:49:07.617Z,33.61
2023-04-13T09:50:07.602Z,33.76
2023-04-13T09:51:06.609Z,33.65
2023-04-13T09:52:07.749Z,33.67
2023-04-13T09:53:07.675Z,33.86
2023-04-13T09:54:06.745Z,33.82
2023-04-13T09:55:07.822Z,33.89
2023-04-13T09:56:07.824Z,34.06
2023-04-13T09:57:07.166Z,34.16
2023-04-13T09:58:07.931Z,34.38
2023-04-13T09:59:07.032Z,34.68
2023-04-13T10:00:08.074Z,34.54
2023-04-13T10:01:07.132Z,34.58
2023-04-13T10:02:07.168Z,34.66
2023-04-13T10:03:08.183Z,34.63
2023-04-13T10:04:07.179Z,34.86
2023-04-13T10:05:07.185Z,35.06
2023-04-13T10:06:07.187Z,34.87
2023-04-13T10:07:08.211Z,35.03
2023-04-13T10:08:07.220Z,35.39
2023-04-13T10:09:07.222Z,35.43
2023-04-13T10:10:08.206Z,35.15
2023-04-13T10:11:08.205Z,35.31
2023-04-13T10:12:07.240Z,35.27
2023-04-13T10:13:08.209Z,35.43
2023-04-13T10:14:08.196Z,35.77
2023-04-13T10:15:08.206Z,35.68
2023-04-13T10:16:08.228Z,35.64
2023-04-13T10:17:07.282Z,35.70
2023-04-13T10:18:07.342Z,35.80
2023-04-13T10:19:08.232Z,36.05
2023-04-13T10:20:08.265Z,36.30
2023-04-13T10:21:08.270Z,36.14
2023-04-13T10:22:09.484Z,36.06
2023-04-13T10:23:08.282Z,36.15
2023-04-13T10:25:07.269Z,36.91
2023-04-13T10:26:07.250Z,36.61
2023-04-13T10:27:08.244Z,36.62
2023-04-13T10:28:08.276Z,36.68
2023-04-13T10:29:07.245Z,37.03
2023-04-13T10:30:08.208Z,36.88
2023-04-13T10:31:08.262Z,36.94
2023-04-13T10:32:08.237Z,36.97
2023-04-13T10:33:08.317Z,36.92
2023-04-13T10:34:08.196Z,36.90
2023-04-13T10:35:07.173Z,37.05
2023-04-13T10:36:08.206Z,37.15
2023-04-13T10:37:07.173Z,37.12
2023-04-13T10:38:08.147Z,37.23
2023-04-13T10:39:07.143Z,37.22
2023-04-13T10:40:08.135Z,37.31
2023-04-13T10:41:08.317Z,37.32
2023-04-13T10:42:08.229Z,37.66
2023-04-13T10:43:07.116Z,37.63
2023-04-13T10:44:07.134Z,36.52
2023-04-13T10:45:07.121Z,35.41
2023-04-13T10:46:08.099Z,35.65
2023-04-13T10:47:08.293Z,35.19
2023-04-13T10:48:08.141Z,34.73
2023-04-13T10:49:07.183Z,34.98
2023-04-13T10:50:07.074Z,35.17
2023-04-13T10:51:08.064Z,34.63
2023-04-13T10:52:08.071Z,34.99
2023-04-13T10:53:08.102Z,33.84
2023-04-13T10:54:07.074Z,34.10
2023-04-13T10:55:07.096Z,33.87
2023-04-13T10:56:07.044Z,33.36
2023-04-13T10:57:08.391Z,33.31
2023-04-13T10:58:08.062Z,33.67
2023-04-13T10:59:07.014Z,33.47
2023-04-13T11:00:07.054Z,33.94
2023-04-13T11:01:08.001Z,33.50
2023-04-13T11:02:08.061Z,33.60
2023-04-13T11:03:08.123Z,33.56
2023-04-13T11:04:12.329Z,33.79
2023-04-13T11:05:08.011Z,34.05
2023-04-13T11:06:06.984Z,34.62
2023-04-13T11:07:06.982Z,34.36
2023-04-13T11:08:06.954Z,34.24
2023-04-13T11:09:08.564Z,34.85
2023-04-13T11:10:07.967Z,34.62
2023-04-13T11:11:08.169Z,34.39
2023-04-13T11:12:07.934Z,34.32
2023-04-13T11:13:07.918Z,34.12
2023-04-13T11:14:07.928Z,34.59
2023-04-13T11:15:06.901Z,34.29
2023-04-13T11:16:06.905Z,33.93
2023-04-13T11:17:07.952Z,34.19
2023-04-13T11:18:07.942Z,33.54
2023-04-13T11:19:06.902Z,33.92
2023-04-13T11:20:07.909Z,33.68
2023-04-13T11:21:08.954Z,33.12
2023-04-13T11:23:07.848Z,33.57
2023-04-13T11:24:07.839Z,33.69
2023-04-13T11:25:07.852Z,33.83
2023-04-13T11:26:06.849Z,33.76
2023-04-13T11:27:08.205Z,33.98
2023-04-13T11:28:07.811Z,33.84
2023-04-13T11:29:07.811Z,33.98
2023-04-13T11:30:06.870Z,33.95
2023-04-13T11:31:06.796Z,34.03
2023-04-13T11:32:07.788Z,33.99
2023-04-13T11:33:07.815Z,34.05
2023-04-13T11:34:06.763Z,34.01
2023-04-13T11:35:06.765Z,34.02
2023-04-13T11:36:06.782Z,34.09
2023-04-13T11:37:08.234Z,34.06
2023-04-13T11:38:07.752Z,34.03
2023-04-13T11:39:08.412Z,34.07
2023-04-13T11:40:07.726Z,34.09
2023-04-13T11:41:16.623Z,34.10
2023-04-13T11:42:07.739Z,34.12
2023-04-13T11:43:07.705Z,34.14
2023-04-13T11:44:07.707Z,34.12
2023-04-13T11:45:07.685Z,34.14
2023-04-13T11:46:06.748Z,34.15
2023-04-13T11:47:07.679Z,34.16
2023-04-13T11:48:07.694Z,34.21
2023-04-13T11:49:07.645Z,34.30
2023-04-13T11:50:07.643Z,34.28
2023-04-13T11:51:06.638Z,34.38
2023-04-13T11:52:06.634Z,34.38
2023-04-13T11:53:07.653Z,34.36
2023-04-13T11:54:06.627Z,34.42
2023-04-13T11:55:18.873Z,34.45
2023-04-13T11:56:07.614Z,34.48
2023-04-13T11:57:07.589Z,34.49
2023-04-13T11:58:07.601Z,34.54
2023-04-13T11:59:06.606Z,34.56
2023-04-13T12:00:06.577Z,34.54
2023-04-13T12:01:13.429Z,34.57
2023-04-13T12:02:15.462Z,34.53
2023-04-13T12:04:14.482Z,34.61
2023-04-13T12:05:07.674Z,34.62
2023-04-13T12:06:06.837Z,34.60
2023-04-13T12:07:07.898Z,34.64
2023-04-13T12:08:08.612Z,34.75
2023-04-13T12:09:13.421Z,34.75
2023-04-13T12:10:08.357Z,34.81
2023-04-13T12:11:36.715Z,34.81
2023-04-13T12:12:48.880Z,34.79
2023-04-13T12:13:20.422Z,34.84
2023-04-13T12:14:13.720Z,34.86
2023-04-13T12:15:17.013Z,34.87
2023-04-13T12:16:13.365Z,34.92
2023-04-13T12:17:18.335Z,34.96
2023-04-13T12:19:07.143Z,34.92
2023-04-13T12:20:07.852Z,34.95
2023-04-13T12:21:07.550Z,35.00
2023-04-13T12:22:07.124Z,35.04
2023-04-13T12:23:15.603Z,35.03
2023-04-13T12:24:07.688Z,35.06
2023-04-13T12:25:08.808Z,35.14
2023-04-13T12:26:41.290Z,35.13
2023-04-13T12:27:16.905Z,35.15
2023-04-13T12:28:07.401Z,35.18
2023-04-13T12:29:07.372Z,35.20
2023-04-13T12:30:07.383Z,35.24
2023-04-13T12:31:07.400Z,35.20
2023-04-13T12:32:07.361Z,35.21
2023-04-13T12:33:07.403Z,35.20
2023-04-13T12:34:06.411Z,35.28
2023-04-13T12:35:06.366Z,35.33
2023-04-13T12:36:06.365Z,35.44
2023-04-13T12:37:06.314Z,35.53
2023-04-13T12:38:06.307Z,35.61
2023-04-13T12:39:07.328Z,36.10
2023-04-13T12:40:07.336Z,36.30
2023-04-13T12:41:06.330Z,36.27
2023-04-13T12:42:07.288Z,36.15
2023-04-13T12:43:07.291Z,35.96
2023-04-13T12:44:06.278Z,35.96
2023-04-13T12:45:06.253Z,35.92
2023-04-13T12:46:07.238Z,35.87
2023-04-13T12:47:07.303Z,35.87
2023-04-13T12:48:07.277Z,35.83
2023-04-13T12:49:06.230Z,35.78
2023-04-13T12:50:07.228Z,35.82
2023-04-13T12:51:07.219Z,35.82
2023-04-13T12:52:07.197Z,35.83
2023-04-13T12:53:07.193Z,35.79
2023-04-13T12:54:07.186Z,35.81
2023-04-13T12:55:07.184Z,35.79
2023-04-13T12:56:07.213Z,35.85
2023-04-13T12:57:07.224Z,35.86